Latest Weather Observations for Young

IDN60801

Issued at 8:11 pm EDT Sunday 29 March 2015 (issued every 30 minutes, with the page automatically refreshed every 10 minutes)

About weather observations | Map of weather stations | Latest weather observations for NSW | Other Formats
Station Details ID: 073138 Name: YOUNG AIRPORT Lat: -34.25 Lon: 148.25 Height: 379.6 m
Data from the previous 72 hours. | See also: Recent months at Young
Date/Time
EDT
Temp
°C
App
Temp
°C
Dew
Point
Rel
Hum
%
Delta-T
°C
Wind Press
QNH
hPa
Press
MSL
hPa
Rain
since 9 am
mm
Dir
 
Spd
km/h
Gust
km/h
Spd
kts
Gust
kts
29/08:00pm 13.9 10.9 3.9 51 4.6 WSW 9 9 5 5 1022.5 1021.3 0.0
29/07:30pm 15.8 13.4 4.5 47 5.4 SSE 6 7 3 4 1022.2 1021.0 0.0
29/07:00pm 17.8 15.3 3.7 39 6.7 WSW 6 7 3 4 1022.2 1021.0 0.0
29/06:30pm 20.3 17.8 3.5 33 8.1 WNW 6 9 3 5 1022.2 1021.0 0.0
29/06:00pm 21.7 19.8 2.9 29 9.1 W 2 9 1 5 1021.9 1020.7 0.0
29/05:30pm 22.5 19.7 3.1 28 9.4 SW 7 11 4 6 1021.6 1020.4 0.0
29/05:00pm 22.0 19.4 3.2 29 9.1 N 6 11 3 6 1021.8 1020.6 0.0
29/04:30pm 22.1 19.9 3.3 29 9.2 W 4 11 2 6 1021.9 1020.7 0.0
29/04:00pm 22.2 19.1 3.8 30 9.0 WSW 9 13 5 7 1022.1 1020.9 0.0
29/03:30pm 21.8 19.1 2.5 28 9.2 WSW 6 11 3 6 1022.2 1021.0 0.0
29/03:00pm 21.7 17.7 2.9 29 9.1 SW 13 20 7 11 1022.4 1021.2 0.0
29/02:30pm 21.4 18.1 2.6 29 9.0 W 9 15 5 8 1022.6 1021.4 0.0
29/02:00pm 21.4 17.4 3.1 30 8.8 SW 13 20 7 11 1022.7 1021.5 0.0
29/01:30pm 21.4 18.1 2.2 28 9.1 WSW 9 17 5 9 1023.3 1022.1 0.0
29/01:00pm 21.7 18.2 1.4 26 9.5 SW 9 17 5 9 1023.3 1022.1 0.0
29/12:30pm 21.7 18.3 1.9 27 9.3 SW 9 15 5 8 1023.6 1022.4 0.0
29/12:00pm 21.8 17.7 2.5 28 9.2 WSW 13 20 7 11 1024.0 1022.8 0.0
29/11:30am 20.9 16.9 0.7 26 9.3 SW 11 20 6 11 1023.7 1022.5 0.0
29/11:00am 20.3 17.5 2.2 30 8.5 S 6 11 3 6 1024.1 1022.9 0.0
29/10:30am 19.4 16.6 2.3 32 8.0 SSE 6 9 3 5 1024.1 1022.9 0.0
29/10:00am 16.9 14.4 3.6 41 6.3 N 6 7 3 4 1024.3 1023.1 0.0
29/09:30am 14.4 13.3 5.2 54 4.4 CALM 0 0 0 0 1024.1 1022.9 0.0
29/09:00am 11.9 9.0 4.9 62 3.3 S 9 11 5 6 1023.6 1022.4 0.0
29/08:30am 9.4 7.1 5.0 74 2.0 S 6 9 3 5 1023.5 1022.3 0.0
29/08:00am 8.0 5.7 4.8 80 1.4 SSW 6 7 3 4 1023.3 1022.1 0.0
29/07:30am 7.2 4.7 3.8 79 1.5 S 6 9 3 5 1023.1 1021.9 0.0
29/07:00am 7.6 6.0 4.4 80 1.4 SE 2 7 1 4 1022.5 1021.3 0.0
29/06:30am 7.4 4.9 4.0 79 1.5 WSW 6 11 3 6 1022.2 1021.0 0.0
29/06:00am 7.1 4.5 4.1 81 1.3 S 7 9 4 5 1021.7 1020.5 0.0
29/05:30am 6.7 4.2 3.7 81 1.3 WSW 6 6 3 3 1021.7 1020.5 0.0
29/05:00am 6.9 5.5 3.7 80 1.4 CALM 0 7 0 4 1021.5 1020.3 0.0
29/04:30am 6.8 5.3 3.2 78 1.5 CALM 0 0 0 0 1021.5 1020.3 0.0
29/04:00am 6.6 4.0 3.0 78 1.5 S 6 7 3 4 1021.4 1020.2 0.0
29/03:30am 7.2 4.6 3.3 76 1.7 SW 6 7 3 4 1021.8 1020.6 0.0
29/03:00am 6.2 3.3 2.8 79 1.4 S 7 9 4 5 1022.0 1020.8 0.0
29/02:30am 6.2 3.5 2.5 77 1.6 SSW 6 7 3 4 1022.2 1021.0 0.0
29/02:00am 5.5 2.5 1.8 77 1.5 SSW 7 9 4 5 1022.4 1021.2 0.0
29/01:30am 6.1 3.3 2.2 76 1.6 SSW 6 7 3 4 1022.4 1021.2 0.0
29/01:00am 6.1 3.3 1.8 74 1.8 SSW 6 7 3 4 1022.2 1021.0 0.0
29/12:30am 6.4 3.6 1.9 73 1.9 SSW 6 7 3 4 1022.2 1021.0 0.0
29/12:00am 6.3 3.4 1.6 72 1.9 SSW 6 7 3 4 1022.2 1021.0 0.0
 
Date/Time
EDT
Temp
°C
App
Temp
°C
Dew
Point
Rel
Hum
%
Delta-T
°C
Wind Press
QNH
hPa
Press
MSL
hPa
Rain
since 9 am
mm
Dir
 
Spd
km/h
Gust
km/h
Spd
kts
Gust
kts
28/11:30pm 6.4 3.4 1.7 72 1.9 SSW 7 7 4 4 1022.3 1021.1 0.0
28/11:00pm 7.0 3.9 1.3 67 2.3 SSW 7 7 4 4 1022.5 1021.3 0.0
28/10:30pm 7.4 4.5 1.5 66 2.4 S 6 7 3 4 1022.6 1021.4 0.0
28/10:00pm 7.6 4.7 1.7 66 2.5 SSW 6 7 3 4 1022.6 1021.4 0.0
28/09:30pm 8.7 5.5 0.7 57 3.3 SSW 7 9 4 5 1022.4 1021.2 0.0
28/09:00pm 9.6 6.5 1.5 57 3.4 S 7 9 4 5 1022.5 1021.3 0.0
28/08:30pm 9.6 6.5 0.0 51 3.9 SW 6 7 3 4 1022.2 1021.0 0.0
28/08:00pm 12.6 9.6 0.7 44 5.1 SSW 6 7 3 4 1021.7 1020.5 0.0
28/07:30pm 13.8 11.0 -0.3 38 6.0 WSW 4 7 2 4 1021.4 1020.2 0.0
28/07:00pm 17.8 14.6 -0.5 29 8.0 W 6 6 3 3 1021.2 1020.0 0.0
28/06:30pm 21.1 18.5 -2.0 21 10.1 WNW 2 7 1 4 1021.0 1019.8 0.0
28/06:00pm 21.9 18.2 -2.7 19 10.7 S 7 11 4 6 1020.9 1019.7 0.0
28/05:30pm 22.8 18.7 -2.7 18 11.2 SW 9 15 5 8 1020.9 1019.7 0.0
28/05:00pm 22.7 18.3 -2.1 19 10.9 WNW 11 20 6 11 1021.0 1019.8 0.0
28/04:30pm 23.1 19.0 -0.4 21 10.8 WNW 11 20 6 11 1021.1 1019.9 0.0
28/04:00pm 23.3 19.7 0.4 22 10.6 WSW 9 20 5 11 1021.1 1019.9 0.0
28/03:30pm 22.7 18.4 1.1 24 10.2 NW 13 20 7 11 1021.1 1019.9 0.0
28/03:00pm 23.3 20.2 1.6 24 10.3 NW 7 15 4 8 1021.5 1020.3 0.0
28/02:30pm 22.0 18.6 1.6 26 9.6 WSW 9 17 5 9 1021.7 1020.5 0.0
28/02:00pm 22.1 18.9 3.3 29 9.2 NNW 9 15 5 8 1022.2 1021.0 0.0
28/01:30pm 21.0 17.8 2.8 30 8.7 SSW 9 17 5 9 1022.4 1021.2 0.0
28/01:00pm 20.8 18.3 4.0 33 8.2 SE 6 11 3 6 1022.9 1021.8 0.0
28/12:30pm 19.0 16.3 2.8 34 7.7 SE 6 13 3 7 1023.6 1022.4 0.0
28/12:00pm 19.0 15.9 3.6 36 7.4 SE 9 15 5 8 1023.8 1022.6 0.0
28/11:30am 18.3 15.2 3.8 38 7.0 SE 9 15 5 8 1024.3 1023.1 0.0
28/11:00am 17.9 15.4 4.5 41 6.5 ESE 7 13 4 7 1024.4 1023.2 0.0
28/10:30am 16.5 14.0 4.9 46 5.6 S 7 13 4 7 1024.5 1023.3 0.0
28/10:00am 16.1 12.9 5.1 48 5.3 S 11 15 6 8 1024.3 1023.1 0.0
28/09:30am 13.0 11.0 6.4 64 3.2 SSE 6 7 3 4 1024.1 1022.9 0.0
28/09:00am 9.4 8.5 5.9 79 1.6 CALM 0 0 0 0 1024.1 1022.9 0.0
28/08:30am 5.4 2.9 3.7 89 0.7 SSW 6 7 3 4 1024.0 1022.8 0.0
28/08:00am 2.9 1.2 1.9 93 0.4 CALM 0 2 0 1 1023.8 1022.6 0.0
28/07:30am 1.5 -0.4 0.6 94 0.3 CALM 0 0 0 0 1023.7 1022.5 0.0
28/07:00am 1.3 -2.0 0.4 94 0.3 SSE 7 7 4 4 1023.5 1022.3 0.0
28/06:30am 1.8 -1.4 0.8 93 0.4 S 7 7 4 4 1023.4 1022.2 0.0
28/06:00am 2.0 -0.6 1.0 93 0.4 SSW 4 7 2 4 1023.3 1022.1 0.0
28/05:30am 2.5 -0.4 1.6 94 0.4 SSW 6 7 3 4 1022.9 1021.8 0.0
28/05:00am 2.4 -0.5 1.5 94 0.4 SSE 6 7 3 4 1022.6 1021.4 0.0
28/04:30am 2.3 -0.7 1.0 91 0.5 S 6 9 3 5 1022.5 1021.3 0.0
28/04:00am 3.0 0.0 1.7 91 0.5 SW 7 11 4 6 1022.4 1021.2 0.0
28/03:30am 3.3 0.5 2.0 91 0.5 SSW 6 7 3 4 1022.6 1021.4 0.0
28/03:00am 3.6 0.8 2.0 89 0.6 SSW 6 9 3 5 1022.7 1021.5 0.0
28/02:30am 4.4 1.4 2.3 86 0.9 SW 7 9 4 5 1023.1 1021.9 0.0
28/02:00am 4.9 2.0 2.6 85 1.0 S 7 7 4 4 1023.2 1022.0 0.0
28/01:30am 5.0 2.3 2.9 86 0.9 S 6 9 3 5 1023.2 1022.0 0.0
28/01:00am 5.6 4.1 2.8 82 1.2 CALM 0 6 0 3 1023.3 1022.1 0.0
28/12:30am 6.1 3.5 3.1 81 1.3 S 6 7 3 4 1023.5 1022.3 0.0
28/12:00am 6.4 3.8 3.0 79 1.4 SW 6 7 3 4 1023.5 1022.3 0.0
 
Date/Time
EDT
Temp
°C
App
Temp
°C
Dew
Point
Rel
Hum
%
Delta-T
°C
Wind Press
QNH
hPa
Press
MSL
hPa
Rain
since 9 am
mm
Dir
 
Spd
km/h
Gust
km/h
Spd
kts
Gust
kts
27/11:30pm 6.9 5.4 3.2 77 1.6 CALM 0 0 0 0 1023.5 1022.3 0.0
27/11:00pm 7.6 6.2 3.5 75 1.8 CALM 0 0 0 0 1023.4 1022.2 0.0
27/10:30pm 8.6 6.0 3.2 69 2.4 S 6 7 3 4 1023.3 1022.1 0.0
27/10:00pm 9.8 7.3 3.5 65 2.8 S 6 7 3 4 1023.1 1021.9 0.0
27/09:30pm 10.8 8.1 3.6 61 3.2 S 7 9 4 5 1022.7 1021.5 0.0
27/09:00pm 12.4 8.9 3.4 54 4.1 WSW 11 13 6 7 1022.4 1021.2 0.0
27/08:30pm 13.9 10.4 3.7 50 4.7 SW 11 13 6 7 1022.2 1021.0 0.0
27/08:00pm 15.0 11.6 3.8 47 5.2 SW 11 13 6 7 1021.8 1020.6 0.0
27/07:30pm 15.7 11.8 3.5 44 5.7 SW 13 17 7 9 1021.4 1020.2 0.0
27/07:00pm 17.4 12.7 3.3 39 6.6 SW 17 26 9 14 1021.2 1020.0 0.0
27/06:30pm 18.4 13.4 3.5 37 7.1 SW 19 28 10 15 1021.0 1019.8 0.0
27/06:00pm 19.0 13.4 3.6 36 7.4 SW 22 30 12 16 1020.9 1019.7 0.0
27/05:30pm 19.8 13.8 3.5 34 7.9 SW 24 35 13 19 1020.8 1019.6 0.0
27/05:00pm 20.0 13.6 3.3 33 8.0 SW 26 33 14 18 1020.7 1019.5 0.0
27/04:30pm 20.3 14.4 3.9 34 8.0 WSW 24 46 13 25 1020.6 1019.3 0.0
27/04:00pm 19.9 14.9 3.6 34 7.9 SW 19 43 10 23 1021.0 1019.8 0.0
27/03:30pm 20.2 14.8 4.3 35 7.8 SW 22 33 12 18 1021.0 1019.8 0.0
27/03:00pm 20.5 15.2 4.9 36 7.7 WSW 22 33 12 18 1021.4 1020.2 0.0
27/02:30pm 20.0 15.2 4.5 36 7.6 WSW 19 33 10 18 1021.7 1020.5 0.0
27/02:00pm 18.8 13.0 4.2 38 7.1 SW 24 39 13 21 1022.0 1020.8 0.0
27/01:30pm 18.8 14.1 5.3 41 6.7 WSW 19 32 10 17 1022.6 1021.4 0.0
27/01:00pm 17.9 13.4 6.1 46 5.9 WSW 19 37 10 20 1023.3 1022.1 0.0
27/12:30pm 16.5 11.9 5.5 48 5.4 WSW 19 26 10 14 1023.6 1022.4 0.0
27/12:00pm 15.5 11.7 5.7 52 4.8 WSW 15 28 8 15 1024.1 1022.9 0.0
27/11:30am 14.8 11.0 5.6 54 4.5 W 15 26 8 14 1024.4 1023.2 0.0
27/11:00am 14.0 9.4 5.4 56 4.1 SW 19 28 10 15 1024.5 1023.3 0.0
27/10:30am 13.6 10.2 5.7 59 3.8 W 13 24 7 13 1024.4 1023.2 0.0
27/10:00am 12.7 9.5 5.1 60 3.6 WSW 11 17 6 9 1024.4 1023.2 0.0
27/09:30am 11.9 8.7 5.3 64 3.1 WSW 11 15 6 8 1024.2 1023.0 0.0
27/09:00am 10.7 6.8 5.5 70 2.4 SW 15 22 8 12 1024.4 1023.2 0.0
27/08:54am 10.5 7.8 5.7 72 2.3 WSW 9 17 5 9 1024.4 1023.2 0.0
27/08:30am 5.4 3.6 1.3 75 1.7 CALM 0 0 0 0 1024.3 1023.1 0.0
27/08:00am 2.5 0.6 0.7 88 0.7 CALM 0 0 0 0 1024.0 1022.8 0.0
27/07:30am 0.5 -1.6 -0.6 92 0.4 CALM 0 0 0 0 1023.7 1022.5 0.0
27/07:00am 0.5 -1.6 -0.9 90 0.5 CALM 0 0 0 0 1023.4 1022.2 0.0
27/06:30am 1.1 -2.3 -0.4 90 0.6 S 7 7 4 4 1023.1 1021.9 0.0
27/06:00am 1.5 -1.6 0.0 90 0.6 S 6 7 3 4 1022.8 1021.6 0.0
27/05:30am 1.7 -1.6 0.1 89 0.6 S 7 7 4 4 1022.5 1021.3 0.0
27/05:00am 1.8 -0.1 0.3 90 0.6 CALM 0 0 0 0 1022.4 1021.2 0.0
27/04:30am 1.8 -1.3 0.0 88 0.7 S 6 7 3 4 1022.3 1021.1 0.0
27/04:00am 1.9 -1.2 0.1 88 0.7 SSE 6 7 3 4 1022.4 1021.2 0.0
27/03:30am 2.1 -0.6 0.2 87 0.7 S 4 6 2 3 1022.6 1021.4 0.0
27/03:00am 2.6 -0.4 0.5 86 0.8 S 6 7 3 4 1022.8 1021.6 0.0
27/02:30am 2.8 0.1 0.4 84 0.9 SSW 4 7 2 4 1023.1 1021.9 0.0
27/02:00am 3.4 0.4 0.6 82 1.1 SSW 6 6 3 3 1023.1 1021.9 0.0
27/01:30am 4.0 1.0 0.9 80 1.2 S 6 7 3 4 1023.1 1021.9 0.0
27/01:00am 3.9 0.9 0.6 79 1.3 SSW 6 7 3 4 1023.2 1022.0 0.0
27/12:30am 4.7 1.5 0.5 74 1.7 SSW 7 7 4 4 1023.4 1022.2 0.0
27/12:00am 5.6 2.6 0.6 70 2.0 SSW 6 7 3 4 1023.3 1022.1 0.0
 
Date/Time
EDT
Temp
°C
App
Temp
°C
Dew
Point
Rel
Hum
%
Delta-T
°C
Wind Press
QNH
hPa
Press
MSL
hPa
Rain
since 9 am
mm
Dir
 
Spd
km/h
Gust
km/h
Spd
kts
Gust
kts
26/11:30pm 5.9 4.0 0.5 68 2.2 CALM 0 0 0 0 1023.4 1022.2 0.0
26/11:00pm 6.4 4.5 0.5 66 2.4 CALM 0 0 0 0 1023.4 1022.2 0.0
26/10:30pm 7.1 4.8 0.5 63 2.7 SW 2 7 1 4 1023.4 1022.2 0.0
26/10:00pm 6.9 4.9 0.1 62 2.7 CALM 0 6 0 3 1023.1 1021.9 0.0
26/09:30pm 7.9 5.6 0.2 58 3.1 WSW 2 6 1 3 1022.8 1021.6 0.0
26/09:00pm 9.4 6.2 -0.2 51 3.9 W 6 7 3 4 1022.6 1021.4 0.0
26/08:30pm 10.6 7.4 -0.5 46 4.5 W 6 7 3 4 1022.3 1021.1 0.0

Other Formats:

Comma delimited format used in spreadsheet applications
http://www.bom.gov.au/fwo/IDN60801/IDN60801.94712.axf

JavaScript Object Notation format (JSON) in row-major order
http://www.bom.gov.au/fwo/IDN60801/IDN60801.94712.json